Terminal Aerodrome Forecast
Issued by NWS

Home | Current Version | Previous Version | Text Only | Print | Product List | Glossary On
Versions: 1 2 3 4 5 6 7 8 9 10 11 12 13 14 15 16 17 18
210
FTUS45 KRIW 261741
TAFJAC
TAF
KJAC 261741Z 2618/2718 19008KT P6SM VCSH SCT012 BKN030
     FM262000 21011KT 5SM -SHRASN SCT015 BKN025 OVC035
     FM270100 22012KT 2SM -SHSN OVC015
     FM270900 23015G23KT 2SM -SHSN BKN012
     FM271200 23017G27KT 1SM -SN OVC010
      AMD LTD TO CLD VIS AND WIND=

USA.gov is the U.S. government's official web portal to all federal, state and local government web resources and services.